Time;durP1;ratioP1;P1;durP2;ratioP2;P2;SDS_P1;SDS_P2;PMS_P1;PMS_P2;Temp;Humidity;BMP_temperature;BMP_pressure;BME280_temperature;BME280_humidity;BME280_pressure;Samples;Min_cycle;Max_cycle;Signal;HPM_P1;HPM_P2
2021/03/02 00:01:37;;;;;;;2.9;1.3;;;;;;;1.87;76.92383;949.6258;;;;
2021/03/02 00:04:02;;;;;;;3.3;1.8;;;;;;;1.88;76.91406;949.5683;;;;
2021/03/02 00:06:27;;;;;;;2.1;1.3;;;;;;;1.95;76.54688;949.5898;;;;
2021/03/02 00:08:52;;;;;;;5.2;2.1;;;;;;;1.8;76.75195;949.6083;;;;
2021/03/02 00:11:18;;;;;;;1.5;0.8;;;;;;;1.72;77.1084;949.6345;;;;
2021/03/02 00:13:43;;;;;;;2.2;1.5;;;;;;;1.67;77.27734;949.6454;;;;
2021/03/02 00:16:12;;;;;;;2.1;1.6;;;;;;;1.68;77.26758;949.5328;;;;
2021/03/02 00:18:38;;;;;;;3.1;1.3;;;;;;;1.66;77.25391;949.5655;;;;
2021/03/02 00:21:04;;;;;;;2.5;1.2;;;;;;;1.52;77.67383;949.6585;;;;
2021/03/02 00:23:33;;;;;;;2.5;1.6;;;;;;;1.61;77.75977;949.5774;;;;
2021/03/02 00:26:00;;;;;;;2.3;1.3;;;;;;;1.72;77.27637;949.671;;;;
2021/03/02 00:28:25;;;;;;;1.3;1.2;;;;;;;1.69;77.02539;949.6678;;;;
2021/03/02 00:30:53;;;;;;;1.6;1.5;;;;;;;1.58;77.13965;949.682;;;;
2021/03/02 00:33:18;;;;;;;2.8;1.7;;;;;;;1.63;76.96875;949.709;;;;
2021/03/02 00:35:44;;;;;;;3.3;1.6;;;;;;;1.78;76.42676;949.6827;;;;
2021/03/02 00:38:09;;;;;;;4;1.7;;;;;;;1.81;76.29688;949.6792;;;;
2021/03/02 00:40:38;;;;;;;1.6;1.1;;;;;;;1.7;75.99805;949.685;;;;
2021/03/02 00:43:07;;;;;;;1.9;1.3;;;;;;;1.53;76.77246;949.6752;;;;
2021/03/02 00:45:32;;;;;;;1.3;1;;;;;;;1.35;77.62207;949.6887;;;;
2021/03/02 00:47:58;;;;;;;2.2;0.9;;;;;;;1.34;77.6543;949.6142;;;;
2021/03/02 00:50:23;;;;;;;1.5;1.3;;;;;;;1.47;77.01758;949.6164;;;;
2021/03/02 00:52:50;;;;;;;0.9;0.8;;;;;;;1.49;76.81055;949.6155;;;;
2021/03/02 00:55:15;;;;;;;2.7;1.4;;;;;;;1.44;76.99023;949.6531;;;;
2021/03/02 00:57:41;;;;;;;0.7;0.7;;;;;;;1.58;76.4668;949.6079;;;;
2021/03/02 01:00:06;;;;;;;1.5;1.2;;;;;;;1.7;75.29297;949.6082;;;;
2021/03/02 01:02:33;;;;;;;1.5;1;;;;;;;1.62;75.53613;949.7093;;;;
2021/03/02 01:04:58;;;;;;;1.8;1.2;;;;;;;1.49;76.0166;949.6237;;;;
2021/03/02 01:07:26;;;;;;;1.5;1.1;;;;;;;1.56;75.99414;949.6845;;;;
2021/03/02 01:09:51;;;;;;;5.7;1;;;;;;;1.64;75.56152;949.6616;;;;
2021/03/02 01:12:26;;;;;;;1;0.8;;;;;;;1.6;75.53125;949.6792;;;;
2021/03/02 01:14:46;;;;;;;1.1;0.9;;;;;;;1.56;75.28027;949.7075;;;;
2021/03/02 01:17:15;;;;;;;3.6;1.4;;;;;;;1.32;76.31934;949.7094;;;;
2021/03/02 01:19:44;;;;;;;1.3;0.8;;;;;;;1.16;76.96191;949.6955;;;;
2021/03/02 01:22:09;;;;;;;1.4;1;;;;;;;1.24;76.66211;949.7106;;;;
2021/03/02 01:24:41;;;;;;;1.3;0.8;;;;;;;1.26;76.34277;949.6886;;;;
2021/03/02 01:27:13;;;;;;;1.4;1;;;;;;;1.32;75.96289;949.7247;;;;
2021/03/02 01:29:42;;;;;;;0.9;0.8;;;;;;;1.36;75.73535;949.6987;;;;
2021/03/02 01:32:09;;;;;;;1.2;0.9;;;;;;;1.49;75.14453;949.7568;;;;
2021/03/02 01:34:40;;;;;;;1.4;1;;;;;;;1.45;75.21484;949.7162;;;;
2021/03/02 01:37:06;;;;;;;2.1;0.8;;;;;;;1.35;75.10742;949.7263;;;;
2021/03/02 01:39:31;;;;;;;2.9;1.1;;;;;;;1.22;75.82129;949.7119;;;;
2021/03/02 01:41:57;;;;;;;2.5;1.3;;;;;;;1.25;75.66016;949.6174;;;;
2021/03/02 01:44:34;;;;;;;1.7;1.2;;;;;;;1.37;75.12207;949.5848;;;;
2021/03/02 01:47:06;;;;;;;0.8;0.7;;;;;;;1.42;74.77246;949.5904;;;;
2021/03/02 01:49:32;;;;;;;2.8;0.7;;;;;;;1.34;74.48047;949.5392;;;;
2021/03/02 01:52:05;;;;;;;1.1;0.9;;;;;;;1.37;74.18359;949.6303;;;;
2021/03/02 01:54:34;;;;;;;2.3;0.9;;;;;;;1.33;73.8877;949.6218;;;;
2021/03/02 01:56:59;;;;;;;1.3;1.1;;;;;;;1.29;74.34766;949.6535;;;;
2021/03/02 01:59:27;;;;;;;1.8;1.3;;;;;;;1.27;74.5459;949.639;;;;
2021/03/02 02:01:54;;;;;;;1.4;1.1;;;;;;;1.34;74.3125;949.6683;;;;
2021/03/02 02:04:19;;;;;;;1;0.8;;;;;;;1.37;74.19629;949.6667;;;;
2021/03/02 02:06:50;;;;;;;0.6;0.6;;;;;;;1.37;74.06055;949.6906;;;;
2021/03/02 02:09:20;;;;;;;1.3;0.9;;;;;;;1.36;73.72363;949.6943;;;;
2021/03/02 02:11:45;;;;;;;2.4;1;;;;;;;1.5;73.33496;949.7291;;;;
2021/03/02 02:14:10;;;;;;;0.6;0.6;;;;;;;1.52;73.01367;949.6315;;;;
2021/03/02 02:16:35;;;;;;;0.8;0.7;;;;;;;1.53;72.85938;949.6956;;;;
2021/03/02 02:19:01;;;;;;;1.1;0.8;;;;;;;1.44;73.0332;949.634;;;;
2021/03/02 02:21:26;;;;;;;0.7;0.6;;;;;;;1.19;73.69531;949.7093;;;;
2021/03/02 02:23:51;;;;;;;1.6;0.9;;;;;;;1.16;74.13574;949.681;;;;
2021/03/02 02:26:16;;;;;;;1;0.7;;;;;;;1.26;73.77344;949.6553;;;;
2021/03/02 02:28:41;;;;;;;1.7;0.9;;;;;;;1.28;73.52148;949.649;;;;
2021/03/02 02:31:12;;;;;;;0.7;0.5;;;;;;;1.27;73.38379;949.6594;;;;
2021/03/02 02:33:43;;;;;;;1.1;0.7;;;;;;;1.12;74.08496;949.6992;;;;
2021/03/02 02:36:08;;;;;;;3.3;0.6;;;;;;;1.02;74.55664;949.709;;;;
2021/03/02 02:38:36;;;;;;;1.1;0.8;;;;;;;0.94;74.79004;949.5675;;;;
2021/03/02 02:41:06;;;;;;;1.3;1;;;;;;;0.94;74.7998;949.6926;;;;
2021/03/02 02:43:31;;;;;;;0.8;0.8;;;;;;;0.83;75.01465;949.6764;;;;
2021/03/02 02:46:00;;;;;;;1;0.7;;;;;;;0.85;75.04199;949.6856;;;;
2021/03/02 02:48:25;;;;;;;0.4;0.4;;;;;;;0.96;74.7041;949.6936;;;;
2021/03/02 02:50:53;;;;;;;1.2;1.1;;;;;;;0.99;74.31836;949.6523;;;;
2021/03/02 02:53:21;;;;;;;2.7;0.8;;;;;;;0.97;74.42676;949.7184;;;;
2021/03/02 02:55:46;;;;;;;1.4;0.8;;;;;;;0.84;74.27051;949.7219;;;;
2021/03/02 02:58:15;;;;;;;1.4;0.5;;;;;;;0.93;74.18359;949.6933;;;;
2021/03/02 03:00:41;;;;;;;0.3;0.3;;;;;;;1.09;73.65234;949.7283;;;;
2021/03/02 03:03:10;;;;;;;0.8;0.6;;;;;;;1.27;72.92578;949.7363;;;;
2021/03/02 03:05:37;;;;;;;0.6;0.6;;;;;;;1.35;72.13477;949.7523;;;;
2021/03/02 03:08:02;;;;;;;0.5;0.5;;;;;;;1.26;72.33203;949.7809;;;;
2021/03/02 03:10:35;;;;;;;0.6;0.6;;;;;;;1.17;72.70801;949.7736;;;;
2021/03/02 03:13:00;;;;;;;1.1;1;;;;;;;0.88;73.74023;949.7809;;;;
2021/03/02 03:15:37;;;;;;;2.3;1;;;;;;;0.84;74.23535;949.7681;;;;
2021/03/02 03:18:03;;;;;;;0.5;0.5;;;;;;;0.82;74.52246;949.7988;;;;
2021/03/02 03:20:39;;;;;;;0.5;0.5;;;;;;;0.75;74.83496;949.7809;;;;
2021/03/02 03:23:09;;;;;;;0.6;0.6;;;;;;;0.68;74.45215;949.7911;;;;
2021/03/02 03:25:40;;;;;;;1.5;0.9;;;;;;;0.75;74.25391;949.7569;;;;
2021/03/02 03:28:11;;;;;;;1.1;0.6;;;;;;;0.83;73.69824;949.762;;;;
2021/03/02 03:30:44;;;;;;;0.7;0.7;;;;;;;0.85;73.60156;949.7706;;;;
2021/03/02 03:33:12;;;;;;;1.9;1;;;;;;;0.95;73.38477;949.751;;;;
2021/03/02 03:35:37;;;;;;;1.1;0.7;;;;;;;0.93;73.17969;949.7422;;;;
2021/03/02 03:38:06;;;;;;;0.5;0.5;;;;;;;0.9;73.32129;949.7101;;;;
2021/03/02 03:40:37;;;;;;;0.4;0.4;;;;;;;1;73.10254;949.8339;;;;
2021/03/02 03:43:05;;;;;;;0.5;0.5;;;;;;;0.92;72.84473;949.8149;;;;
2021/03/02 03:45:33;;;;;;;1;0.9;;;;;;;0.73;73.12207;949.7938;;;;
2021/03/02 03:48:03;;;;;;;0.7;0.4;;;;;;;0.67;73.61523;949.7805;;;;
2021/03/02 03:50:41;;;;;;;0.6;0.6;;;;;;;0.78;73.1875;949.7801;;;;
2021/03/02 03:53:12;;;;;;;0.3;0.3;;;;;;;0.88;73.08203;949.7972;;;;
2021/03/02 03:55:43;;;;;;;0.9;0.7;;;;;;;0.93;72.70996;949.7892;;;;
2021/03/02 03:58:11;;;;;;;0.3;0.3;;;;;;;0.8;72.93457;949.8049;;;;
2021/03/02 04:02:39;;;;;;;0.5;0.5;;;;;;;0.59;74.08105;949.81;;;;
2021/03/02 04:05:16;;;;;;;0.9;0.8;;;;;;;0.57;74.15527;949.8409;;;;
2021/03/02 04:07:44;;;;;;;2.1;0.6;;;;;;;0.62;74.00781;949.875;;;;
2021/03/02 04:10:16;;;;;;;0.7;0.6;;;;;;;0.56;74.06445;949.8438;;;;
2021/03/02 04:12:50;;;;;;;1.5;0.9;;;;;;;0.52;73.81152;949.8614;;;;
2021/03/02 04:15:17;;;;;;;1;0.7;;;;;;;0.66;73.66895;949.8936;;;;
2021/03/02 04:17:46;;;;;;;1.2;0.9;;;;;;;0.67;73.58203;949.8469;;;;
2021/03/02 04:20:14;;;;;;;0.5;0.5;;;;;;;0.73;73.50195;949.8562;;;;
2021/03/02 04:22:39;;;;;;;0.8;0.7;;;;;;;0.78;73.14258;949.8616;;;;
2021/03/02 04:25:15;;;;;;;1.5;0.6;;;;;;;0.81;73.05859;949.9072;;;;
2021/03/02 04:27:40;;;;;;;1.9;0.9;;;;;;;0.9;73.53223;949.8933;;;;
2021/03/02 04:30:12;;;;;;;2.3;0.9;;;;;;;0.86;72.70898;949.9779;;;;
2021/03/02 04:32:37;;;;;;;0.5;0.5;;;;;;;0.87;72.5459;949.9741;;;;
2021/03/02 04:35:03;;;;;;;0.8;0.8;;;;;;;0.9;72.14746;949.9397;;;;
2021/03/02 04:37:28;;;;;;;1.8;1.2;;;;;;;0.87;72.05371;949.9403;;;;
2021/03/02 04:39:56;;;;;;;1.8;0.9;;;;;;;0.94;71.69727;949.9595;;;;
2021/03/02 04:42:21;;;;;;;5.3;1.5;;;;;;;0.95;71.56348;949.9866;;;;
2021/03/02 04:44:50;;;;;;;1.2;0.9;;;;;;;0.98;71.43555;950.034;;;;
2021/03/02 04:47:15;;;;;;;1.3;1.1;;;;;;;0.95;71.48535;950.054;;;;
2021/03/02 04:49:42;;;;;;;1.5;1.1;;;;;;;0.83;71.74414;950.1516;;;;
2021/03/02 04:52:07;;;;;;;2.6;1.3;;;;;;;0.74;72.15332;950.1525;;;;
2021/03/02 04:54:33;;;;;;;1;0.8;;;;;;;0.73;72.3418;950.1503;;;;
2021/03/02 04:56:58;;;;;;;3;1.6;;;;;;;0.75;72.3125;950.1227;;;;
2021/03/02 04:59:25;;;;;;;1.4;0.9;;;;;;;0.86;71.90723;950.2134;;;;
2021/03/02 05:01:50;;;;;;;2.3;1.2;;;;;;;0.9;71.67969;950.1078;;;;
2021/03/02 05:04:16;;;;;;;3.2;1.5;;;;;;;0.87;71.91992;950.1222;;;;
2021/03/02 05:06:41;;;;;;;2;1.5;;;;;;;0.89;71.59863;950.2119;;;;
2021/03/02 05:09:07;;;;;;;4;1.9;;;;;;;0.83;71.94531;950.2189;;;;
2021/03/02 05:11:32;;;;;;;12.1;2.3;;;;;;;0.72;72.50879;950.2446;;;;
2021/03/02 05:14:01;;;;;;;5;2.5;;;;;;;0.52;73.28711;950.2642;;;;
2021/03/02 05:16:29;;;;;;;3.7;2.1;;;;;;;0.46;73.38965;950.2947;;;;
2021/03/02 05:18:54;;;;;;;6.7;2.9;;;;;;;0.46;73.28711;950.3439;;;;
2021/03/02 05:21:20;;;;;;;5.4;2.7;;;;;;;0.45;72.97363;950.2658;;;;
2021/03/02 05:23:46;;;;;;;4.9;3;;;;;;;0.52;72.89648;950.3511;;;;
2021/03/02 05:26:15;;;;;;;5.3;2.9;;;;;;;0.53;72.86523;950.343;;;;
2021/03/02 05:28:45;;;;;;;9.1;2.6;;;;;;;0.61;72.41016;950.3439;;;;
2021/03/02 05:31:10;;;;;;;3.8;2;;;;;;;0.44;72.44824;950.2946;;;;
2021/03/02 05:33:36;;;;;;;2.3;1.7;;;;;;;0.37;72.88281;950.3425;;;;
2021/03/02 05:36:01;;;;;;;2.2;1.7;;;;;;;0.42;72.87988;950.3011;;;;
2021/03/02 05:38:30;;;;;;;3.2;1.5;;;;;;;0.47;72.64258;950.3019;;;;
2021/03/02 05:41:04;;;;;;;3.6;2.4;;;;;;;0.52;72.54004;950.3084;;;;
2021/03/02 05:43:29;;;;;;;4.5;2.1;;;;;;;0.49;72.54688;950.3656;;;;
2021/03/02 05:46:00;;;;;;;3.8;2.4;;;;;;;0.49;72.35742;950.4227;;;;
2021/03/02 05:48:32;;;;;;;6.2;2.5;;;;;;;0.53;72.34082;950.416;;;;
2021/03/02 05:50:58;;;;;;;4;2.4;;;;;;;0.55;72.28809;950.475;;;;
2021/03/02 05:53:29;;;;;;;8.4;4.3;;;;;;;0.56;72.0791;950.4415;;;;
2021/03/02 05:55:56;;;;;;;7.5;3.3;;;;;;;0.43;72.64746;950.4077;;;;
2021/03/02 05:58:28;;;;;;;6.7;3.6;;;;;;;0.39;72.69629;950.4642;;;;
2021/03/02 06:00:56;;;;;;;7.2;3.4;;;;;;;0.55;72.47754;950.4984;;;;
2021/03/02 06:03:26;;;;;;;4.4;2.9;;;;;;;0.59;72.09668;950.6028;;;;
2021/03/02 06:05:57;;;;;;;4.3;2.6;;;;;;;0.56;72.33398;950.6622;;;;
2021/03/02 06:08:28;;;;;;;3.1;2.5;;;;;;;0.41;72.65723;950.7075;;;;
2021/03/02 06:10:53;;;;;;;7.5;4.5;;;;;;;0.24;73.30566;950.7372;;;;
2021/03/02 06:13:22;;;;;;;14.7;6.6;;;;;;;0.2;73.77734;950.7244;;;;
2021/03/02 06:15:51;;;;;;;3.5;2.5;;;;;;;0.27;73.46777;950.7737;;;;
2021/03/02 06:18:18;;;;;;;9.6;3.7;;;;;;;0.4;73.28906;950.7272;;;;
2021/03/02 06:20:41;;;;;;;6.8;2.8;;;;;;;0.51;72.80664;950.7509;;;;
2021/03/02 06:23:06;;;;;;;3.7;2.2;;;;;;;0.57;72.32617;950.7237;;;;
2021/03/02 06:25:33;;;;;;;3;2;;;;;;;0.63;72.52539;950.7415;;;;
2021/03/02 06:27:56;;;;;;;4.9;1.8;;;;;;;0.79;72.89941;950.726;;;;
2021/03/02 06:30:23;;;;;;;4.4;1.6;;;;;;;1.63;71.73535;950.807;;;;
2021/03/02 06:32:48;;;;;;;6.9;1.8;;;;;;;2.64;66.42578;950.7444;;;;
2021/03/02 06:35:15;;;;;;;8.1;3.5;;;;;;;3.56;62.02051;950.7402;;;;
2021/03/02 06:37:40;;;;;;;11.3;4.2;;;;;;;4.09;58.68848;950.6738;;;;
2021/03/02 06:40:10;;;;;;;7.5;2.1;;;;;;;4.15;57.38086;950.7391;;;;
2021/03/02 06:42:35;;;;;;;3.4;2;;;;;;;4.53;56.37207;950.71;;;;
2021/03/02 06:45:01;;;;;;;8.5;2.3;;;;;;;4.4;56.25488;950.688;;;;
2021/03/02 06:47:27;;;;;;;6.1;2.3;;;;;;;4.2;58.99609;950.7703;;;;
2021/03/02 06:49:52;;;;;;;4.1;1.7;;;;;;;4.49;56.89844;950.7974;;;;
2021/03/02 06:52:19;;;;;;;3.8;1.7;;;;;;;4.64;56.34375;950.788;;;;
2021/03/02 06:54:44;;;;;;;8.6;2.1;;;;;;;4.49;56.4248;950.783;;;;
2021/03/02 06:57:12;;;;;;;2.3;1.6;;;;;;;4.47;56.20898;950.7898;;;;
2021/03/02 06:59:37;;;;;;;2;1.4;;;;;;;4.67;55.60449;950.7587;;;;
2021/03/02 07:02:02;;;;;;;1.4;1.2;;;;;;;4.87;55.42773;950.7773;;;;
2021/03/02 07:04:27;;;;;;;2;1.1;;;;;;;4.92;55.1416;950.7925;;;;
2021/03/02 07:06:54;;;;;;;3;1.8;;;;;;;4.78;55.75391;950.7991;;;;
2021/03/02 07:09:20;;;;;;;5.4;2.5;;;;;;;5.37;53.49512;950.8106;;;;
2021/03/02 07:11:45;;;;;;;5.6;2.2;;;;;;;5.55;52.94238;950.7256;;;;
2021/03/02 07:14:15;;;;;;;9.2;3.5;;;;;;;5.93;52.44727;950.7352;;;;
2021/03/02 07:16:41;;;;;;;9.4;2.9;;;;;;;6.5;51.39648;950.7486;;;;
2021/03/02 07:19:08;;;;;;;2.9;1.4;;;;;;;6.75;48.80176;950.7355;;;;
2021/03/02 07:21:34;;;;;;;2;1.3;;;;;;;7.11;48.54883;950.7477;;;;
2021/03/02 07:24:00;;;;;;;5.1;1.6;;;;;;;7.33;48.24414;950.8;;;;
2021/03/02 07:26:26;;;;;;;9.4;3.2;;;;;;;7.59;47.72949;950.7466;;;;
2021/03/02 07:28:52;;;;;;;10.4;2.3;;;;;;;7.77;47.21582;950.7589;;;;
2021/03/02 07:31:17;;;;;;;4;1.8;;;;;;;7.9;48.39941;950.7932;;;;
2021/03/02 07:33:45;;;;;;;8.9;3.5;;;;;;;8.21;46.14063;950.7628;;;;
2021/03/02 07:36:09;;;;;;;7.5;2.8;;;;;;;8.56;44.98438;950.8226;;;;
2021/03/02 07:38:34;;;;;;;3.8;2.3;;;;;;;8.44;45.19922;950.7902;;;;
2021/03/02 07:41:06;;;;;;;4.2;1.9;;;;;;;8.67;44.92773;950.7883;;;;
2021/03/02 07:43:41;;;;;;;4;1.9;;;;;;;8.6;45.2959;950.7653;;;;
2021/03/02 07:46:08;;;;;;;4.1;1.5;;;;;;;9.12;44.15527;950.8254;;;;
2021/03/02 07:48:39;;;;;;;3.1;1.1;;;;;;;9.61;42.70117;950.8519;;;;
2021/03/02 07:51:04;;;;;;;7.2;1.9;;;;;;;10.4;41.33008;950.8325;;;;
2021/03/02 07:53:29;;;;;;;1.8;0.9;;;;;;;10.37;39.76367;950.8133;;;;
2021/03/02 07:55:56;;;;;;;1.3;1.1;;;;;;;10.48;39.78516;950.8313;;;;
2021/03/02 07:58:22;;;;;;;1.9;0.8;;;;;;;10.68;38.67285;950.7491;;;;
2021/03/02 08:00:46;;;;;;;0.9;0.7;;;;;;;11.06;37.4834;950.8002;;;;
2021/03/02 08:03:13;;;;;;;4.5;1.9;;;;;;;11.03;38.38379;950.7277;;;;
2021/03/02 08:05:43;;;;;;;5.5;1.7;;;;;;;11.51;37.03027;950.7083;;;;
2021/03/02 08:08:08;;;;;;;1.3;1;;;;;;;12.42;34.18359;950.744;;;;
2021/03/02 08:10:36;;;;;;;3.9;0.9;;;;;;;12.47;34.71484;950.6077;;;;
2021/03/02 08:13:08;;;;;;;10.1;1.5;;;;;;;12.87;34.31152;950.7238;;;;
2021/03/02 08:15:47;;;;;;;1.8;1.1;;;;;;;13.79;31.97949;950.7145;;;;
2021/03/02 08:18:16;;;;;;;0.8;0.4;;;;;;;13.2;31.64941;950.7606;;;;
2021/03/02 08:20:42;;;;;;;3.4;0.6;;;;;;;13.46;32.46094;950.7414;;;;
2021/03/02 08:23:07;;;;;;;4.2;1.2;;;;;;;14.36;30.8916;950.7421;;;;
2021/03/02 08:25:37;;;;;;;1.3;0.8;;;;;;;14.01;29.80859;950.7386;;;;
2021/03/02 08:28:06;;;;;;;1.4;0.6;;;;;;;14.85;28.59766;950.6789;;;;
2021/03/02 08:30:31;;;;;;;1.5;1.1;;;;;;;15.01;28.34277;950.6761;;;;
2021/03/02 08:32:56;;;;;;;5.4;1.2;;;;;;;16.91;25.84766;950.6501;;;;
2021/03/02 08:35:27;;;;;;;0.7;0.4;;;;;;;16.73;24.67871;950.6473;;;;
2021/03/02 08:37:51;;;;;;;1.8;0.6;;;;;;;17.45;24.66211;950.6646;;;;
2021/03/02 08:40:16;;;;;;;1;0.4;;;;;;;18.29;22.16309;950.6653;;;;
2021/03/02 08:42:41;;;;;;;1;0.7;;;;;;;18.2;22.41504;950.6691;;;;
2021/03/02 08:45:11;;;;;;;3.8;0.9;;;;;;;19.43;21.70801;950.6605;;;;
2021/03/02 08:47:36;;;;;;;3.2;0.8;;;;;;;19.82;20.29297;950.6306;;;;
2021/03/02 08:50:02;;;;;;;0.7;0.3;;;;;;;20.93;20.8584;950.6166;;;;
2021/03/02 08:52:27;;;;;;;1.5;0.5;;;;;;;21.51;19.31738;950.5882;;;;
2021/03/02 08:54:55;;;;;;;0.9;0.7;;;;;;;20.7;19.59668;950.6091;;;;
2021/03/02 08:57:20;;;;;;;0.6;0.5;;;;;;;19.4;20.28516;950.5933;;;;
2021/03/02 08:59:45;;;;;;;1;0.6;;;;;;;19.52;21.00195;950.6244;;;;
2021/03/02 09:02:10;;;;;;;0.6;0.4;;;;;;;18.84;21.26074;950.5503;;;;
2021/03/02 09:04:38;;;;;;;0.5;0.3;;;;;;;18.48;20.89355;950.5728;;;;
2021/03/02 09:07:03;;;;;;;0.6;0.4;;;;;;;16.95;22.16504;950.5594;;;;
2021/03/02 09:09:31;;;;;;;4.6;0.4;;;;;;;16.79;22.75977;950.5222;;;;
2021/03/02 09:11:58;;;;;;;1.2;0.4;;;;;;;17.88;21.93359;950.5147;;;;
2021/03/02 09:14:23;;;;;;;10.2;0.6;;;;;;;19.02;20.65137;950.4925;;;;
2021/03/02 09:16:55;;;;;;;15;5.5;;;;;;;18.24;19.95313;950.5098;;;;
2021/03/02 09:19:23;;;;;;;1.8;0.9;;;;;;;18.86;21.13281;950.4792;;;;
2021/03/02 09:21:48;;;;;;;0.1;0.1;;;;;;;18.87;19.63184;950.443;;;;
2021/03/02 09:24:13;;;;;;;0.2;0.2;;;;;;;19.63;20.28418;950.4345;;;;
2021/03/02 09:26:38;;;;;;;0;0;;;;;;;19.65;20.29688;950.4199;;;;
2021/03/02 09:29:04;;;;;;;0.1;0.1;;;;;;;19.3;19.74414;950.4791;;;;
2021/03/02 09:31:34;;;;;;;0.5;0.2;;;;;;;19.71;20.24121;950.4163;;;;
2021/03/02 09:34:03;;;;;;;0;0;;;;;;;20.75;19.79785;950.4311;;;;
2021/03/02 09:36:28;;;;;;;0.1;0.1;;;;;;;20.97;18.05371;950.3903;;;;
2021/03/02 09:38:58;;;;;;;0.6;0.3;;;;;;;21.06;18.03418;950.3911;;;;
2021/03/02 09:41:30;;;;;;;0.9;0.3;;;;;;;21.49;18.42578;950.368;;;;
2021/03/02 09:43:56;;;;;;;0;0;;;;;;;21.89;17.30566;950.3516;;;;
2021/03/02 09:46:23;;;;;;;0.2;0.1;;;;;;;21.23;17.62012;950.3658;;;;
2021/03/02 09:48:48;;;;;;;0.1;0.1;;;;;;;21.18;17.79297;950.3038;;;;
2021/03/02 09:51:16;;;;;;;0.5;0.1;;;;;;;20.64;19.2207;950.3214;;;;
2021/03/02 09:53:41;;;;;;;0.2;0.2;;;;;;;19.69;18.5957;950.3283;;;;
2021/03/02 09:56:07;;;;;;;0.2;0.2;;;;;;;18.21;20.20703;950.3805;;;;
2021/03/02 09:58:33;;;;;;;0.1;0.1;;;;;;;18.66;20.09961;950.2971;;;;
2021/03/02 10:01:04;;;;;;;2.6;0.5;;;;;;;18.44;20.60156;950.343;;;;
2021/03/02 10:03:28;;;;;;;0.8;0.3;;;;;;;18.72;20.77734;950.2921;;;;
2021/03/02 10:05:54;;;;;;;0.1;0.1;;;;;;;19.67;20.83398;950.2435;;;;
2021/03/02 10:08:19;;;;;;;2.3;0.3;;;;;;;20.79;19.05176;950.26;;;;
2021/03/02 10:10:44;;;;;;;0.1;0.1;;;;;;;21.21;18.18066;950.2483;;;;
2021/03/02 10:13:13;;;;;;;0.1;0.1;;;;;;;22.45;16.71777;950.1928;;;;
2021/03/02 10:15:41;;;;;;;0.1;0.1;;;;;;;22.67;16.33887;950.216;;;;
2021/03/02 10:18:10;;;;;;;0.1;0.1;;;;;;;23.2;17.00488;950.1911;;;;
2021/03/02 10:20:35;;;;;;;0.1;0.1;;;;;;;23.08;16.56543;950.1774;;;;
2021/03/02 10:23:03;;;;;;;0.1;0.1;;;;;;;22.82;17.82324;950.2459;;;;
2021/03/02 10:25:38;;;;;;;1.2;0.2;;;;;;;22.33;17.53418;950.275;;;;
2021/03/02 10:28:03;;;;;;;0.1;0;;;;;;;22.33;16.93652;950.2977;;;;
2021/03/02 10:30:32;;;;;;;0.2;0.2;;;;;;;22.09;17.33789;950.2484;;;;
2021/03/02 10:33:05;;;;;;;0.2;0.2;;;;;;;21.69;18.72754;950.2528;;;;
2021/03/02 10:35:36;;;;;;;0.2;0.2;;;;;;;21.52;18.09961;950.267;;;;
2021/03/02 10:38:05;;;;;;;0.1;0.1;;;;;;;21.15;18.3418;950.2783;;;;
2021/03/02 10:40:30;;;;;;;0;0;;;;;;;20.63;19.19629;950.2422;;;;
2021/03/02 10:42:59;;;;;;;0;0;;;;;;;21.29;18.40625;950.2982;;;;
2021/03/02 10:45:24;;;;;;;0.2;0.1;;;;;;;21.39;17.6377;950.1631;;;;
2021/03/02 10:47:54;;;;;;;1.1;0.2;;;;;;;21.77;18.60156;950.1958;;;;
2021/03/02 10:50:22;;;;;;;0.2;0.2;;;;;;;22.58;16.57031;950.1814;;;;
2021/03/02 10:52:47;;;;;;;0.2;0.2;;;;;;;22.56;16.39355;950.1437;;;;
2021/03/02 10:55:16;;;;;;;0.9;0.2;;;;;;;22.57;16.89844;950.115;;;;
2021/03/02 10:57:41;;;;;;;0.9;0.5;;;;;;;23.08;17.72852;950.1635;;;;
2021/03/02 11:00:11;;;;;;;8.4;0.1;;;;;;;23.05;17.16309;950.1365;;;;
2021/03/02 11:02:34;;;;;;;0.3;0.2;;;;;;;22.5;17.0957;950.1847;;;;
2021/03/02 11:04:59;;;;;;;0;0;;;;;;;22.6;17.04102;950.1437;;;;
2021/03/02 11:07:25;;;;;;;0.4;0.2;;;;;;;22.68;18.65234;950.1069;;;;
2021/03/02 11:09:50;;;;;;;0.1;0.1;;;;;;;22.59;17.58008;950.1261;;;;
2021/03/02 11:12:21;;;;;;;0.2;0.2;;;;;;;22.72;16.27051;950.1166;;;;
2021/03/02 11:14:47;;;;;;;0;0;;;;;;;23.54;15.5127;950.0585;;;;
2021/03/02 11:17:11;;;;;;;0.2;0.1;;;;;;;24.84;14.71973;950.11;;;;
2021/03/02 11:19:38;;;;;;;0.2;0.2;;;;;;;25.74;14.57227;950.0344;;;;
2021/03/02 11:22:03;;;;;;;0.1;0;;;;;;;26.2;13.94824;950.0041;;;;
2021/03/02 11:24:32;;;;;;;0.1;0.1;;;;;;;25.98;15.10059;949.9669;;;;
2021/03/02 11:26:57;;;;;;;0.2;0.2;;;;;;;25.33;16.1416;949.9594;;;;
2021/03/02 11:29:25;;;;;;;0.5;0.2;;;;;;;24.62;15.97461;949.9189;;;;
2021/03/02 11:31:50;;;;;;;0.2;0.1;;;;;;;24.63;17.1416;949.8903;;;;
2021/03/02 11:34:18;;;;;;;0.6;0.3;;;;;;;24.48;17.19531;949.8909;;;;
2021/03/02 11:36:47;;;;;;;2.2;0.3;;;;;;;25.09;16.49805;949.9433;;;;
2021/03/02 11:39:13;;;;;;;0;0;;;;;;;26.06;15.19824;949.9182;;;;
2021/03/02 11:41:41;;;;;;;0.5;0.3;;;;;;;26.77;14.77148;949.8939;;;;
2021/03/02 11:44:08;;;;;;;0.1;0.1;;;;;;;27.07;15.08984;949.8013;;;;
2021/03/02 11:46:31;;;;;;;0.6;0.3;;;;;;;27.34;14.64844;949.7958;;;;
2021/03/02 11:48:58;;;;;;;0.2;0.2;;;;;;;27.58;14.71582;949.7762;;;;
2021/03/02 11:51:23;;;;;;;0.5;0.4;;;;;;;27.99;14.90625;949.7851;;;;
2021/03/02 11:53:49;;;;;;;0.2;0.2;;;;;;;27.91;15.05859;949.7595;;;;
2021/03/02 11:56:14;;;;;;;0.5;0.3;;;;;;;27.66;15.88086;949.7144;;;;
2021/03/02 11:58:43;;;;;;;0.4;0.3;;;;;;;28.69;15.2627;949.7601;;;;
2021/03/02 12:01:08;;;;;;;0.3;0.3;;;;;;;27.57;15.62891;949.6738;;;;
2021/03/02 12:03:34;;;;;;;0.4;0.3;;;;;;;27.85;15.8877;949.6867;;;;
2021/03/02 12:05:59;;;;;;;0.2;0.2;;;;;;;28.61;15.62988;949.659;;;;
2021/03/02 12:08:26;;;;;;;0.4;0.4;;;;;;;27.52;16.79004;949.6386;;;;
2021/03/02 12:10:51;;;;;;;1.2;0.5;;;;;;;27.94;16.27148;949.6215;;;;
2021/03/02 12:13:21;;;;;;;0.5;0.4;;;;;;;28.27;15.61816;949.5458;;;;
2021/03/02 12:15:45;;;;;;;0.8;0.8;;;;;;;28.7;15.62012;949.6013;;;;
2021/03/02 12:18:14;;;;;;;0.6;0.5;;;;;;;28.08;16.5498;949.5795;;;;
2021/03/02 12:20:44;;;;;;;1.5;0.6;;;;;;;27.39;16.87988;949.555;;;;
2021/03/02 12:23:10;;;;;;;1.1;0.5;;;;;;;27.31;17.69531;949.5555;;;;
2021/03/02 12:25:43;;;;;;;1;0.7;;;;;;;26.6;17.91602;949.5327;;;;
2021/03/02 12:28:11;;;;;;;2.4;0.7;;;;;;;24.97;20.25781;949.558;;;;
2021/03/02 12:30:36;;;;;;;0.8;0.5;;;;;;;25.59;19.64844;949.5718;;;;
2021/03/02 12:33:03;;;;;;;4;0.7;;;;;;;25.79;19.36133;949.5637;;;;
2021/03/02 12:35:29;;;;;;;1.7;0.7;;;;;;;26.55;18.9209;949.558;;;;
2021/03/02 12:37:54;;;;;;;1.4;0.7;;;;;;;27.91;16.92285;949.5081;;;;
2021/03/02 12:40:24;;;;;;;2;0.8;;;;;;;28.18;17.69434;949.5259;;;;
2021/03/02 12:42:49;;;;;;;0.8;0.6;;;;;;;27.23;18.71191;949.5673;;;;
2021/03/02 12:45:17;;;;;;;1.7;0.8;;;;;;;27.27;18.55957;949.5556;;;;
2021/03/02 12:47:43;;;;;;;0.5;0.5;;;;;;;25.44;20.38574;949.5265;;;;
2021/03/02 12:50:13;;;;;;;2.3;0.8;;;;;;;25.93;19.54492;949.5341;;;;
2021/03/02 12:52:38;;;;;;;1.6;0.9;;;;;;;25.71;19.28711;949.5189;;;;
2021/03/02 12:55:07;;;;;;;2;1.1;;;;;;;26.35;18.56934;949.4607;;;;
2021/03/02 12:57:33;;;;;;;0.7;0.6;;;;;;;25.94;19.43945;949.4188;;;;
2021/03/02 13:00:00;;;;;;;1.5;0.8;;;;;;;24.12;20.96191;949.4643;;;;
2021/03/02 13:02:25;;;;;;;1.2;0.8;;;;;;;24.06;20.65234;949.4324;;;;
2021/03/02 13:04:50;;;;;;;2.7;1.1;;;;;;;24.15;21.58691;949.3993;;;;
2021/03/02 13:07:15;;;;;;;0.9;0.6;;;;;;;24.7;20.43457;949.4461;;;;
2021/03/02 13:09:40;;;;;;;2.5;1.1;;;;;;;25.36;20.38184;949.4414;;;;
2021/03/02 13:12:10;;;;;;;1.3;0.6;;;;;;;27.08;17.99512;949.4027;;;;
2021/03/02 13:14:36;;;;;;;0.9;0.5;;;;;;;27.11;16.81055;949.3558;;;;
2021/03/02 13:17:00;;;;;;;1.5;0.6;;;;;;;27.57;16.4834;949.3233;;;;
2021/03/02 13:19:25;;;;;;;0.8;0.5;;;;;;;27.4;16.28711;949.3536;;;;
2021/03/02 13:21:52;;;;;;;1.4;0.7;;;;;;;27.01;17.2334;949.3871;;;;
2021/03/02 13:24:17;;;;;;;1.2;0.8;;;;;;;27.01;17.45801;949.3219;;;;
2021/03/02 13:26:45;;;;;;;0.6;0.5;;;;;;;26.58;17.57227;949.3691;;;;
2021/03/02 13:29:10;;;;;;;0.9;0.6;;;;;;;27.48;16.39746;949.3423;;;;
2021/03/02 13:31:35;;;;;;;2.1;0.7;;;;;;;26.79;17.21289;949.3014;;;;
2021/03/02 13:34:02;;;;;;;1.3;0.7;;;;;;;27.18;16.37402;949.2748;;;;
2021/03/02 13:36:27;;;;;;;1;0.7;;;;;;;26.84;16.74023;949.3178;;;;
2021/03/02 13:38:52;;;;;;;0.5;0.4;;;;;;;26.38;17.09082;949.2744;;;;
2021/03/02 13:41:17;;;;;;;3;0.9;;;;;;;26.14;17.5791;949.3226;;;;
2021/03/02 13:43:42;;;;;;;0.4;0.4;;;;;;;26.42;18.19336;949.2606;;;;
2021/03/02 13:46:09;;;;;;;2.6;0.9;;;;;;;25.75;19.08789;949.2548;;;;
2021/03/02 13:48:33;;;;;;;2.8;0.9;;;;;;;25.71;18.17578;949.2473;;;;
2021/03/02 13:51:00;;;;;;;0.6;0.5;;;;;;;26.45;17.62598;949.2353;;;;
2021/03/02 13:53:24;;;;;;;0.5;0.5;;;;;;;26.55;17.6416;949.2849;;;;
2021/03/02 13:55:51;;;;;;;0.9;0.7;;;;;;;25.17;18.76758;949.252;;;;
2021/03/02 13:58:15;;;;;;;0.9;0.6;;;;;;;24.95;18.97168;949.2684;;;;
2021/03/02 14:00:45;;;;;;;0.7;0.6;;;;;;;23.94;19.62207;949.2579;;;;
2021/03/02 14:03:10;;;;;;;2.4;0.8;;;;;;;23.55;20.60547;949.2216;;;;
2021/03/02 14:05:35;;;;;;;3;1.2;;;;;;;24.49;19.68262;949.1616;;;;
2021/03/02 14:08:02;;;;;;;1.5;0.6;;;;;;;24.56;19.73242;949.2372;;;;
2021/03/02 14:10:28;;;;;;;1;0.8;;;;;;;25.36;17.9375;949.2302;;;;
2021/03/02 14:12:52;;;;;;;1.2;0.7;;;;;;;25.45;17.78809;949.2458;;;;
2021/03/02 14:15:23;;;;;;;0.6;0.5;;;;;;;25.37;17.86719;949.2454;;;;
2021/03/02 14:17:51;;;;;;;0.5;0.4;;;;;;;26.3;18.62598;949.2734;;;;
2021/03/02 14:20:16;;;;;;;0.7;0.2;;;;;;;25.71;18.35352;949.2104;;;;
2021/03/02 14:22:42;;;;;;;0.7;0.7;;;;;;;26.02;17.9873;949.2538;;;;
2021/03/02 14:25:07;;;;;;;1.1;0.7;;;;;;;25.98;17.71387;949.2101;;;;
2021/03/02 14:27:35;;;;;;;3.1;0.6;;;;;;;26.49;17.47363;949.1353;;;;
2021/03/02 14:30:00;;;;;;;1.5;0.8;;;;;;;26.12;17.87305;949.1626;;;;
2021/03/02 14:32:27;;;;;;;1;0.8;;;;;;;25.72;18.10547;949.122;;;;
2021/03/02 14:34:52;;;;;;;0.6;0.4;;;;;;;26.06;17.69336;949.1024;;;;